Time;durP1;ratioP1;P1;durP2;ratioP2;P2;SDS_P1;SDS_P2;PMS_P1;PMS_P2;Temp;Humidity;BMP_temperature;BMP_pressure;BME280_temperature;BME280_humidity;BME280_pressure;Samples;Min_cycle;Max_cycle;Signal;HPM_P1;HPM_P2
2023/05/09 04:23:29;;;;;;;7.43;4.03;;;;;;;14.29;89.33;101586.38;4990205;28;96883;-29
2023/05/09 04:25:55;;;;;;;6.45;3.40;;;;;;;14.28;89.29;101576.47;4992600;28;96509;-29
2023/05/09 04:28:21;;;;;;;11.95;4.53;;;;;;;14.30;89.57;101574.53;4992491;28;96775;-31
2023/05/09 04:30:46;;;;;;;7.85;3.95;;;;;;;14.32;88.99;101580.72;4991112;28;113341;-30
2023/05/09 04:33:11;;;;;;;8.93;4.22;;;;;;;14.36;89.28;101587.72;4992362;28;101345;-29
2023/05/09 04:35:37;;;;;;;6.97;4.03;;;;;;;14.35;89.20;101576.91;4992398;28;96658;-30
2023/05/09 04:38:03;;;;;;;11.45;4.28;;;;;;;14.33;89.83;101571.59;4992591;28;96795;-31
2023/05/09 04:40:29;;;;;;;8.45;3.90;;;;;;;14.32;90.09;101566.22;4990588;28;98857;-29
2023/05/09 04:42:56;;;;;;;10.85;4.05;;;;;;;14.27;90.96;101562.94;4990993;28;100756;-30
2023/05/09 04:45:21;;;;;;;7.20;4.13;;;;;;;14.26;91.07;101563.94;4990840;28;98018;-29
2023/05/09 04:47:47;;;;;;;10.18;4.10;;;;;;;14.32;90.25;101555.31;4992868;28;96786;-29
2023/05/09 04:50:12;;;;;;;7.18;3.40;;;;;;;14.32;90.90;101542.56;4992193;28;97980;-29
2023/05/09 04:52:37;;;;;;;10.48;4.07;;;;;;;14.33;89.76;101541.59;4992192;28;97453;-32
2023/05/09 04:55:03;;;;;;;8.32;3.63;;;;;;;14.31;90.89;101538.09;4991664;28;96542;-29
2023/05/09 04:57:28;;;;;;;8.63;3.75;;;;;;;14.30;89.90;101533.66;4992358;28;96685;-30
2023/05/09 04:59:54;;;;;;;9.75;3.88;;;;;;;14.32;90.97;101530.78;4991885;28;98727;-30
2023/05/09 05:02:20;;;;;;;5.75;3.30;;;;;;;14.33;90.73;101527.13;4991920;28;97813;-30
2023/05/09 05:04:45;;;;;;;7.55;3.85;;;;;;;14.34;90.18;101526.13;4990605;28;96888;-31
2023/05/09 05:07:10;;;;;;;6.88;3.65;;;;;;;14.30;89.92;101522.75;4992084;28;97784;-29
2023/05/09 05:09:36;;;;;;;8.18;3.63;;;;;;;14.29;89.48;101512.81;4991803;28;97504;-30
2023/05/09 05:12:01;;;;;;;5.97;3.50;;;;;;;14.33;90.34;101521.66;4992140;28;98748;-31
2023/05/09 05:14:26;;;;;;;9.73;4.00;;;;;;;14.34;90.40;101517.94;4991940;28;96966;-30
2023/05/09 05:16:52;;;;;;;7.43;3.70;;;;;;;14.30;91.25;101520.03;4991911;28;96841;-30
2023/05/09 05:19:17;;;;;;;8.65;3.38;;;;;;;14.32;90.19;101515.31;4991490;28;97929;-30
2023/05/09 05:21:42;;;;;;;9.48;3.80;;;;;;;14.31;90.96;101513.56;4991536;28;104594;-29
2023/05/09 05:24:08;;;;;;;6.57;3.60;;;;;;;14.33;91.29;101511.63;4991214;28;101992;-31
2023/05/09 05:26:33;;;;;;;5.40;3.25;;;;;;;14.31;90.62;101512.72;4991675;28;96823;-31
2023/05/09 05:28:59;;;;;;;5.20;3.25;;;;;;;14.32;90.84;101525.34;4991742;28;97908;-30
2023/05/09 05:31:25;;;;;;;5.93;3.42;;;;;;;14.28;90.62;101502.88;4991238;28;99274;-29
2023/05/09 05:33:50;;;;;;;5.47;3.08;;;;;;;14.31;91.42;101515.44;4991640;28;96589;-30
2023/05/09 05:36:16;;;;;;;7.13;2.88;;;;;;;14.27;91.64;101512.03;4992005;28;96836;-29
2023/05/09 05:38:41;;;;;;;6.13;3.35;;;;;;;14.27;91.52;101506.56;4991705;28;97038;-29
2023/05/09 05:41:10;;;;;;;8.55;3.28;;;;;;;14.23;92.94;101514.09;4991707;28;97168;-29
2023/05/09 05:43:35;;;;;;;5.68;3.20;;;;;;;14.19;91.20;101508.94;4989944;28;96850;-30
2023/05/09 05:46:01;;;;;;;5.00;3.22;;;;;;;14.22;92.55;101508.72;4994608;28;96752;-29
2023/05/09 05:48:26;;;;;;;6.55;3.30;;;;;;;14.16;92.88;101512.75;4995142;28;97903;-31
2023/05/09 05:50:51;;;;;;;9.30;3.35;;;;;;;14.17;93.34;101514.50;4994922;28;101276;-29
2023/05/09 05:53:16;;;;;;;7.63;2.97;;;;;;;14.15;94.01;101510.97;4994746;28;96513;-31
2023/05/09 05:55:44;;;;;;;9.05;3.58;;;;;;;14.13;93.50;101501.16;4994785;28;96768;-29
2023/05/09 05:58:10;;;;;;;4.47;2.65;;;;;;;14.17;94.06;101505.44;4994597;28;99450;-29
2023/05/09 06:00:35;;;;;;;4.88;2.63;;;;;;;14.13;93.79;101507.47;4995277;28;97538;-29
2023/05/09 06:03:00;;;;;;;4.90;2.67;;;;;;;14.14;93.00;101498.34;4994900;28;97095;-30
2023/05/09 06:05:26;;;;;;;6.45;3.38;;;;;;;14.13;94.45;101495.72;4994992;28;96840;-29
2023/05/09 06:07:51;;;;;;;6.05;3.38;;;;;;;14.12;94.21;101493.97;4993955;28;98971;-30
2023/05/09 06:10:16;;;;;;;5.55;2.78;;;;;;;14.09;95.10;101492.34;4994553;28;98415;-30
2023/05/09 06:12:42;;;;;;;5.18;3.10;;;;;;;14.12;94.81;101492.13;4995036;28;96527;-30
2023/05/09 06:15:07;;;;;;;6.03;2.90;;;;;;;14.17;93.81;101484.50;4994647;28;96556;-29
2023/05/09 06:17:33;;;;;;;5.57;2.75;;;;;;;14.11;95.77;101482.22;4994666;28;98146;-29
2023/05/09 06:19:58;;;;;;;6.13;2.70;;;;;;;14.13;94.58;101499.31;4992923;28;100975;-30
2023/05/09 06:22:24;;;;;;;5.20;2.50;;;;;;;14.01;95.30;101479.22;4994313;28;96769;-29
2023/05/09 06:24:49;;;;;;;5.28;2.63;;;;;;;14.05;95.13;101481.75;4994419;28;96853;-29
2023/05/09 06:27:15;;;;;;;5.25;3.10;;;;;;;14.09;94.28;101483.28;4993862;28;107973;-30
2023/05/09 06:29:40;;;;;;;5.07;3.42;;;;;;;14.07;95.15;101482.53;4994172;28;99866;-30
2023/05/09 06:32:05;;;;;;;6.93;3.03;;;;;;;14.02;95.50;101472.78;4993612;28;96605;-29
2023/05/09 06:34:31;;;;;;;6.85;3.22;;;;;;;14.04;95.15;101472.69;4994344;28;96824;-33
2023/05/09 06:36:56;;;;;;;6.28;2.67;;;;;;;14.05;95.96;101473.56;4994111;28;99258;-30
2023/05/09 06:39:21;;;;;;;5.18;2.50;;;;;;;14.02;95.62;101472.78;4994288;28;97148;-30
2023/05/09 06:41:47;;;;;;;5.30;2.97;;;;;;;14.01;96.92;101467.44;4994097;28;96534;-30
2023/05/09 06:44:12;;;;;;;5.18;2.80;;;;;;;13.90;97.38;101460.00;4994304;28;96841;-30
2023/05/09 06:46:37;;;;;;;5.05;3.05;;;;;;;13.98;96.66;101463.06;4994226;28;97939;-30
2023/05/09 06:49:04;;;;;;;8.07;4.10;;;;;;;14.07;96.10;101461.59;4994569;28;98315;-29
2023/05/09 06:51:30;;;;;;;5.25;3.13;;;;;;;14.01;95.85;101452.00;4993771;28;96648;-30
2023/05/09 06:53:56;;;;;;;6.60;3.28;;;;;;;14.06;96.22;101457.09;4994084;28;96841;-31
2023/05/09 06:56:24;;;;;;;7.47;2.92;;;;;;;14.10;95.33;101449.63;4992351;28;97733;-29
2023/05/09 06:58:50;;;;;;;5.18;3.05;;;;;;;14.12;95.76;101450.38;4992341;28;99386;-29
2023/05/09 07:01:16;;;;;;;4.32;2.88;;;;;;;14.07;97.08;101447.09;4992386;28;96567;-30
2023/05/09 07:03:41;;;;;;;6.65;3.03;;;;;;;14.10;95.87;101444.16;4994018;28;96766;-30
2023/05/09 07:06:07;;;;;;;7.00;3.63;;;;;;;14.09;96.89;101446.03;4993822;28;97906;-30
2023/05/09 07:08:32;;;;;;;5.10;3.33;;;;;;;14.13;95.54;101433.06;4993595;28;99108;-29
2023/05/09 07:10:57;;;;;;;5.80;2.92;;;;;;;14.08;97.87;101427.91;4993966;28;96464;-29
2023/05/09 07:13:23;;;;;;;6.43;3.40;;;;;;;14.09;97.63;101429.69;4994201;28;96890;-29
2023/05/09 07:15:48;;;;;;;5.43;2.83;;;;;;;14.10;97.15;101423.25;4993552;28;99436;-29
2023/05/09 07:18:13;;;;;;;6.72;2.92;;;;;;;14.08;98.17;101422.47;4993385;28;99340;-29
2023/05/09 07:20:39;;;;;;;5.78;2.88;;;;;;;14.10;96.95;101411.47;4992835;28;97630;-30
2023/05/09 07:23:04;;;;;;;6.10;3.20;;;;;;;14.13;97.09;101414.84;4993148;28;96786;-30
2023/05/09 07:25:30;;;;;;;5.43;2.80;;;;;;;14.08;97.98;101402.53;4993447;28;99321;-31
2023/05/09 07:27:55;;;;;;;5.45;2.97;;;;;;;14.10;97.31;101400.56;4993335;28;98748;-29
2023/05/09 07:30:21;;;;;;;7.82;3.17;;;;;;;14.07;98.71;101395.34;4993415;28;96839;-30
2023/05/09 07:32:46;;;;;;;4.95;2.92;;;;;;;14.13;98.12;101393.06;4992015;28;96894;-29
2023/05/09 07:35:11;;;;;;;4.65;3.22;;;;;;;14.15;96.81;101398.41;4993021;28;98837;-30
2023/05/09 07:37:37;;;;;;;5.35;3.38;;;;;;;14.14;97.90;101392.09;4993838;28;97411;-29
2023/05/09 07:40:04;;;;;;;5.63;3.30;;;;;;;14.16;99.02;101389.28;4993332;28;96573;-29
2023/05/09 07:42:31;;;;;;;8.05;3.72;;;;;;;14.17;97.75;101383.69;4992039;28;96822;-30
2023/05/09 07:44:57;;;;;;;9.65;3.28;;;;;;;14.19;99.79;101380.88;4991343;28;100990;-29
2023/05/09 07:47:23;;;;;;;6.85;3.67;;;;;;;14.21;99.36;101381.66;4991713;28;100878;-29
2023/05/09 07:49:49;;;;;;;6.55;3.53;;;;;;;14.23;99.21;101377.84;4993041;28;96671;-30
2023/05/09 07:52:16;;;;;;;7.18;3.63;;;;;;;14.25;100.00;101377.72;4993115;28;96707;-30
2023/05/09 07:54:41;;;;;;;6.43;3.50;;;;;;;14.24;98.89;101365.09;4992996;28;99503;-29
2023/05/09 07:57:06;;;;;;;7.45;3.35;;;;;;;14.20;100.00;101371.72;4993081;28;97772;-29
2023/05/09 07:59:32;;;;;;;6.03;3.15;;;;;;;14.19;100.00;101376.31;4993035;28;97028;-30
2023/05/09 08:01:57;;;;;;;5.85;3.40;;;;;;;14.20;100.00;101360.81;4993076;28;96892;-29
2023/05/09 08:04:23;;;;;;;7.18;3.72;;;;;;;14.18;100.00;101374.56;4992468;28;98980;-30
2023/05/09 08:06:48;;;;;;;4.55;2.65;;;;;;;14.20;100.00;101361.69;4993124;28;97248;-29
2023/05/09 08:09:13;;;;;;;8.00;3.42;;;;;;;14.15;100.00;101352.97;4992182;28;96643;-29
2023/05/09 08:11:39;;;;;;;7.68;3.40;;;;;;;14.12;100.00;101347.72;4992873;28;96960;-29
2023/05/09 08:14:04;;;;;;;5.43;3.28;;;;;;;14.14;100.00;101347.63;4992550;28;99133;-29
2023/05/09 08:16:29;;;;;;;7.53;3.33;;;;;;;14.14;100.00;101344.91;4992559;28;99206;-30
2023/05/09 08:18:55;;;;;;;5.30;2.75;;;;;;;14.13;100.00;101349.47;4992458;28;96860;-29
2023/05/09 08:21:21;;;;;;;6.50;3.45;;;;;;;14.12;100.00;101342.28;4992961;28;96949;-29
2023/05/09 08:23:46;;;;;;;5.88;3.05;;;;;;;14.13;100.00;101330.41;4990600;28;100894;-30
2023/05/09 08:26:11;;;;;;;6.57;2.85;;;;;;;14.18;100.00;101335.53;4992629;28;99054;-30
2023/05/09 08:28:37;;;;;;;4.93;3.03;;;;;;;14.19;100.00;101331.84;4992792;28;96503;-30
2023/05/09 08:31:02;;;;;;;5.75;3.42;;;;;;;14.16;100.00;101332.06;4992310;28;96876;-30
2023/05/09 08:33:28;;;;;;;5.68;3.30;;;;;;;14.19;100.00;101326.41;4992027;28;97986;-30
2023/05/09 08:35:53;;;;;;;6.63;3.45;;;;;;;14.20;100.00;101318.09;4992113;28;99310;-30
2023/05/09 08:38:19;;;;;;;6.75;3.72;;;;;;;14.21;99.64;101324.44;4992165;28;96675;-29
2023/05/09 08:40:45;;;;;;;5.53;2.83;;;;;;;14.19;100.00;101320.94;4992470;28;96834;-29
2023/05/09 08:43:11;;;;;;;5.05;2.80;;;;;;;14.16;100.00;101319.31;4992498;28;98146;-30
2023/05/09 08:45:50;;;;;;;8.63;2.70;;;;;;;14.18;100.00;101316.44;4990878;28;101062;-29
2023/05/09 08:48:16;;;;;;;5.13;2.25;;;;;;;14.20;100.00;101309.06;4990636;28;96643;-29
2023/05/09 08:50:42;;;;;;;5.03;2.40;;;;;;;14.21;100.00;101311.69;4992852;28;96832;-29
2023/05/09 08:53:08;;;;;;;4.80;2.38;;;;;;;14.16;100.00;101313.00;4990779;28;100820;-30
2023/05/09 08:55:33;;;;;;;4.65;2.58;;;;;;;14.15;100.00;101308.50;4992105;28;99093;-28
2023/05/09 08:57:59;;;;;;;5.28;3.08;;;;;;;14.19;100.00;101307.31;4991871;28;96606;-29
2023/05/09 09:00:25;;;;;;;6.65;2.60;;;;;;;14.19;100.00;101310.03;4992189;28;96932;-31
2023/05/09 09:02:52;;;;;;;4.60;2.55;;;;;;;14.19;100.00;101305.47;4990398;28;101457;-30
2023/05/09 09:05:17;;;;;;;5.55;2.40;;;;;;;14.20;100.00;101303.59;4990615;28;99088;-30
2023/05/09 09:07:44;;;;;;;6.15;3.08;;;;;;;14.19;100.00;101301.88;4992329;28;96814;-30
2023/05/09 09:10:10;;;;;;;5.20;3.00;;;;;;;14.20;100.00;101299.03;4992218;28;96809;-30
2023/05/09 09:12:37;;;;;;;5.45;2.22;;;;;;;14.19;100.00;101299.16;4992067;28;97651;-29
2023/05/09 09:15:04;;;;;;;6.50;2.95;;;;;;;14.21;100.00;101291.75;4990856;28;98967;-31
2023/05/09 09:17:31;;;;;;;6.25;3.20;;;;;;;14.18;100.00;101281.03;4990498;28;96626;-29
2023/05/09 09:20:00;;;;;;;3.78;2.65;;;;;;;14.26;100.00;101288.69;4991781;28;97425;-29
2023/05/09 09:22:32;;;;;;;4.97;2.75;;;;;;;14.26;100.00;101292.28;4993591;28;101067;-29
2023/05/09 09:25:01;;;;;;;3.63;2.30;;;;;;;14.25;100.00;101293.25;4993839;28;100697;-29
2023/05/09 09:27:27;;;;;;;5.95;3.20;;;;;;;14.24;100.00;101291.50;4994003;28;96635;-30
2023/05/09 09:29:53;;;;;;;5.03;2.72;;;;;;;14.22;100.00;101283.44;4993727;28;96844;-29
2023/05/09 09:32:18;;;;;;;4.30;3.00;;;;;;;14.26;100.00;101280.53;4995094;28;97901;-29
2023/05/09 09:34:48;;;;;;;7.35;2.97;;;;;;;14.28;100.00;101276.72;4995015;28;99716;-29
2023/05/09 09:37:21;;;;;;;5.30;2.55;;;;;;;14.28;100.00;101276.72;4995196;28;96703;-29
2023/05/09 09:39:54;;;;;;;3.78;2.50;;;;;;;14.28;100.00;101275.81;4994102;28;97037;-29
2023/05/09 09:42:20;;;;;;;10.07;3.28;;;;;;;14.28;100.00;101275.81;4993229;28;100982;-29
2023/05/09 09:44:54;;;;;;;4.05;2.53;;;;;;;14.32;100.00;101277.34;4995120;28;97394;-29
2023/05/09 09:47:30;;;;;;;4.10;2.80;;;;;;;14.27;100.00;101269.50;4993207;28;97304;-29
2023/05/09 09:49:56;;;;;;;4.20;2.58;;;;;;;14.25;100.00;101271.44;4995043;28;96674;-29
2023/05/09 09:52:23;;;;;;;4.80;2.38;;;;;;;14.24;100.00;101277.91;4994808;28;99568;-29
2023/05/09 09:54:48;;;;;;;4.10;2.53;;;;;;;14.27;100.00;101271.34;4993287;28;100801;-29
2023/05/09 09:57:33;;;;;;;5.25;2.63;;;;;;;14.25;100.00;101268.72;4994869;28;96631;-30
2023/05/09 09:59:58;;;;;;;6.25;3.25;;;;;;;14.30;100.00;101266.56;4993456;28;96768;-30
2023/05/09 10:02:24;;;;;;;7.50;3.05;;;;;;;14.29;100.00;101264.81;4994604;28;98029;-30
2023/05/09 10:04:49;;;;;;;8.32;3.08;;;;;;;14.35;100.00;101267.13;4995181;28;97776;-31
2023/05/09 10:07:14;;;;;;;4.90;2.90;;;;;;;14.38;100.00;101269.63;4994803;28;98851;-32
2023/05/09 10:09:40;;;;;;;4.20;3.00;;;;;;;14.40;100.00;101267.66;4994838;28;96889;-29
2023/05/09 10:12:07;;;;;;;6.28;3.10;;;;;;;14.42;100.00;101262.09;4994157;28;97917;-29
2023/05/09 10:14:34;;;;;;;4.53;2.72;;;;;;;14.37;100.00;101262.44;4993217;28;101020;-29
2023/05/09 10:17:01;;;;;;;10.38;3.35;;;;;;;14.39;100.00;101254.13;4994684;28;96523;-30
2023/05/09 10:19:28;;;;;;;6.18;3.20;;;;;;;14.40;100.00;101256.75;4993162;28;96861;-29
2023/05/09 10:22:01;;;;;;;8.90;3.00;;;;;;;14.47;100.00;101259.03;4993049;28;100895;-29
2023/05/09 10:24:49;;;;;;;5.95;2.90;;;;;;;14.45;100.00;101251.84;4992633;28;100797;-30
2023/05/09 10:27:20;;;;;;;5.90;3.42;;;;;;;14.45;100.00;101259.16;4993322;28;96966;-29
2023/05/09 10:29:50;;;;;;;4.45;2.67;;;;;;;14.40;100.00;101251.31;4993424;28;97877;-30
2023/05/09 10:32:51;;;;;;;4.72;2.75;;;;;;;14.39;100.00;101244.09;4975990;28;101521;-31
2023/05/09 10:35:18;;;;;;;4.38;2.90;;;;;;;14.38;100.00;101239.63;4991084;28;100780;-30
2023/05/09 10:37:44;;;;;;;4.13;2.60;;;;;;;14.38;100.00;101245.09;4992496;28;97070;-29
2023/05/09 10:40:14;;;;;;;5.32;2.78;;;;;;;14.34;100.00;101240.81;4992750;28;97180;-29
2023/05/09 10:42:43;;;;;;;4.15;2.45;;;;;;;14.35;100.00;101230.78;4992501;28;100979;-30
2023/05/09 10:45:12;;;;;;;5.25;2.80;;;;;;;14.38;100.00;101234.19;4992625;28;101424;-31
2023/05/09 10:47:39;;;;;;;3.60;2.08;;;;;;;14.40;100.00;101231.38;4992707;28;96626;-29
2023/05/09 10:50:07;;;;;;;3.30;2.17;;;;;;;14.40;100.00;101223.19;4992847;28;96960;-29
2023/05/09 10:52:33;;;;;;;3.95;2.28;;;;;;;14.29;100.00;101214.91;4992562;28;102007;-30
2023/05/09 10:55:00;;;;;;;3.97;2.78;;;;;;;14.35;100.00;101223.50;4994405;28;97808;-30
2023/05/09 10:57:28;;;;;;;4.63;2.92;;;;;;;14.37;100.00;101216.09;4992436;28;96777;-30
2023/05/09 10:59:55;;;;;;;4.32;2.67;;;;;;;14.39;100.00;101213.25;4992518;28;96968;-29
2023/05/09 11:02:27;;;;;;;4.85;2.97;;;;;;;14.41;100.00;101220.31;4991745;28;100975;-30
2023/05/09 11:05:12;;;;;;;3.97;2.88;;;;;;;14.38;100.00;101212.38;4994385;28;97470;-30
2023/05/09 11:07:38;;;;;;;3.72;2.40;;;;;;;14.35;100.00;101204.44;4992409;28;96587;-29
2023/05/09 11:10:07;;;;;;;5.85;2.10;;;;;;;14.37;100.00;101215.22;4993813;28;96902;-29
2023/05/09 11:12:32;;;;;;;5.85;3.38;;;;;;;14.40;100.00;101204.09;4992279;28;101271;-31
2023/05/09 11:15:06;;;;;;;7.60;2.83;;;;;;;14.40;100.00;101204.09;4994000;28;96593;-30
2023/05/09 11:17:37;;;;;;;5.20;2.78;;;;;;;14.33;100.00;101192.78;4992329;28;97758;-30
2023/05/09 11:20:06;;;;;;;7.22;3.00;;;;;;;14.35;100.00;101196.25;4992733;28;96756;-29
2023/05/09 11:22:43;;;;;;;4.97;3.05;;;;;;;14.35;100.00;101189.91;4992020;28;100914;-29
2023/05/09 11:25:11;;;;;;;5.20;3.20;;;;;;;14.28;100.00;101197.69;4993641;28;97271;-29
2023/05/09 11:27:49;;;;;;;4.32;2.70;;;;;;;14.34;100.00;101197.22;4992937;28;96625;-29
2023/05/09 11:30:17;;;;;;;6.00;3.70;;;;;;;14.37;100.00;101196.13;4992008;28;96840;-30
2023/05/09 11:32:46;;;;;;;4.95;3.10;;;;;;;14.38;100.00;101196.03;4991954;28;101212;-31
2023/05/09 11:35:15;;;;;;;4.85;2.60;;;;;;;14.37;100.00;101180.69;4991958;28;100739;-29
2023/05/09 11:37:46;;;;;;;4.60;2.58;;;;;;;14.43;100.00;101188.38;4991986;28;96580;-30
2023/05/09 11:40:14;;;;;;;4.65;3.20;;;;;;;14.46;100.00;101184.56;4991874;28;96840;-29
2023/05/09 11:42:45;;;;;;;4.72;2.90;;;;;;;14.48;100.00;101189.91;4991078;28;101259;-29
2023/05/09 11:45:11;;;;;;;4.72;2.70;;;;;;;14.41;100.00;101181.31;4992060;28;101254;-29
2023/05/09 11:47:37;;;;;;;4.60;2.85;;;;;;;14.40;100.00;101182.31;4991797;28;96970;-29
2023/05/09 11:50:11;;;;;;;3.22;2.47;;;;;;;14.39;100.00;101178.69;4991816;28;96900;-29
2023/05/09 11:52:38;;;;;;;3.90;2.33;;;;;;;14.46;100.00;101176.38;4992694;28;98309;-30
2023/05/09 11:55:12;;;;;;;4.68;2.53;;;;;;;14.46;100.00;101165.50;4991692;28;100778;-30
2023/05/09 11:57:39;;;;;;;4.30;2.92;;;;;;;14.44;100.00;101162.91;4991723;28;96694;-30
2023/05/09 12:00:06;;;;;;;4.00;2.65;;;;;;;14.44;100.00;101168.34;4991660;28;96895;-29
2023/05/09 12:02:33;;;;;;;4.10;2.47;;;;;;;14.39;100.00;101170.50;4992972;28;97917;-30
2023/05/09 12:05:10;;;;;;;2.92;2.03;;;;;;;14.36;100.00;101168.00;4991402;28;101391;-29
2023/05/09 12:07:38;;;;;;;3.55;2.15;;;;;;;14.35;100.00;101158.09;4991545;28;96864;-29
2023/05/09 12:10:09;;;;;;;3.45;2.17;;;;;;;14.36;100.00;101165.28;4993486;28;96805;-29
2023/05/09 12:12:40;;;;;;;2.80;1.85;;;;;;;14.32;100.00;101152.84;4992735;28;99180;-29
2023/05/09 12:15:07;;;;;;;3.27;2.10;;;;;;;14.36;100.00;101159.84;4993302;28;97287;-29
2023/05/09 12:17:33;;;;;;;2.83;1.70;;;;;;;14.36;100.00;101154.38;4990876;28;97617;-29
2023/05/09 12:20:00;;;;;;;3.13;1.85;;;;;;;14.34;100.00;101156.34;4991375;28;96859;-30
2023/05/09 12:22:25;;;;;;;2.65;1.75;;;;;;;14.35;100.00;101152.66;4991238;28;101346;-28
2023/05/09 12:24:50;;;;;;;2.65;1.70;;;;;;;14.32;100.00;101139.22;4992268;28;97869;-31
2023/05/09 12:27:17;;;;;;;4.22;2.00;;;;;;;14.37;100.00;101149.78;4992884;28;96591;-31
2023/05/09 12:29:44;;;;;;;2.45;1.70;;;;;;;14.36;100.00;101139.91;4991306;28;96863;-29
2023/05/09 12:32:12;;;;;;;3.35;1.70;;;;;;;14.40;100.00;101136.84;4990844;28;101170;-29
2023/05/09 12:34:38;;;;;;;2.28;1.40;;;;;;;14.40;100.00;101142.28;4991489;28;101000;-30
2023/05/09 12:37:16;;;;;;;1.55;1.17;;;;;;;14.41;100.00;101140.44;4992463;28;96734;-29
2023/05/09 12:39:59;;;;;;;2.10;1.33;;;;;;;14.44;100.00;101140.19;4992660;28;96638;-30
2023/05/09 12:42:28;;;;;;;2.42;1.30;;;;;;;14.43;100.00;101133.88;4992027;28;97520;-29
2023/05/09 12:44:53;;;;;;;3.05;1.60;;;;;;;14.51;100.00;101132.44;4990890;28;100758;-29
2023/05/09 12:47:19;;;;;;;1.95;1.45;;;;;;;14.49;100.00;101131.69;4992505;28;96576;-29
2023/05/09 12:49:48;;;;;;;2.45;1.73;;;;;;;14.51;100.00;101129.72;4992131;28;96860;-29
2023/05/09 12:52:20;;;;;;;3.70;2.03;;;;;;;14.54;100.00;101129.50;4990712;28;101066;-29
2023/05/09 12:54:47;;;;;;;2.60;1.80;;;;;;;14.57;100.00;101132.03;4991034;28;97265;-29
2023/05/09 12:57:23;;;;;;;5.15;1.48;;;;;;;14.56;100.00;101125.72;4992354;28;96726;-31
2023/05/09 12:59:48;;;;;;;3.67;1.65;;;;;;;14.56;100.00;101123.00;4992564;28;96819;-30
2023/05/09 13:02:14;;;;;;;3.40;1.90;;;;;;;14.57;100.00;101123.84;4991333;28;97545;-31
2023/05/09 13:04:40;;;;;;;2.92;1.73;;;;;;;14.56;100.00;101117.53;4990558;28;100831;-29
2023/05/09 13:07:09;;;;;;;4.20;2.22;;;;;;;14.54;100.00;101113.16;4990122;28;97317;-29
2023/05/09 13:09:35;;;;;;;3.05;1.80;;;;;;;14.55;100.00;101120.38;4992039;28;96949;-30
2023/05/09 13:12:02;;;;;;;3.40;2.00;;;;;;;14.57;100.00;101119.28;4990462;28;99214;-31
2023/05/09 13:14:28;;;;;;;2.38;1.45;;;;;;;14.57;100.00;101108.38;4991943;28;97408;-31
2023/05/09 13:16:54;;;;;;;2.42;1.63;;;;;;;14.61;100.00;101109.00;4991795;28;96803;-29
2023/05/09 13:19:19;;;;;;;2.60;1.75;;;;;;;14.69;100.00;101116.63;4990561;28;96860;-29
2023/05/09 13:21:44;;;;;;;4.10;1.88;;;;;;;14.70;100.00;101112.91;4990480;28;99465;-31
2023/05/09 13:24:10;;;;;;;3.05;2.05;;;;;;;14.65;100.00;101094.16;4991425;28;99100;-29
2023/05/09 13:26:35;;;;;;;2.30;1.50;;;;;;;14.63;100.00;101096.13;4989671;28;97237;-29
2023/05/09 13:29:00;;;;;;;2.67;1.40;;;;;;;14.59;100.00;101095.50;4989516;28;97114;-30
2023/05/09 13:31:26;;;;;;;3.28;1.42;;;;;;;14.52;100.00;101104.22;4988545;28;99276;-31
2023/05/09 13:33:51;;;;;;;2.97;1.80;;;;;;;14.49;100.00;101108.03;4989248;28;98275;-33
2023/05/09 13:36:17;;;;;;;1.15;0.82;;;;;;;14.45;100.00;101111.97;4989223;28;97397;-30
2023/05/09 13:38:44;;;;;;;3.05;1.35;;;;;;;14.47;100.00;101096.38;4989213;28;96998;-29
2023/05/09 13:41:10;;;;;;;3.42;1.48;;;;;;;14.48;100.00;101100.84;4990565;28;97241;-29
2023/05/09 13:43:37;;;;;;;2.47;1.45;;;;;;;14.49;100.00;101102.59;4990283;28;100607;-30
2023/05/09 13:46:03;;;;;;;1.45;0.98;;;;;;;14.49;100.00;101097.13;4990202;28;96621;-29
2023/05/09 13:48:28;;;;;;;2.60;1.42;;;;;;;14.56;100.00;101097.56;4991756;28;96935;-29
2023/05/09 13:50:54;;;;;;;1.77;1.10;;;;;;;14.54;100.00;101100.41;4991565;28;97944;-29
2023/05/09 13:53:20;;;;;;;2.20;1.38;;;;;;;14.56;100.00;101097.56;4991386;28;99373;-29
2023/05/09 13:55:46;;;;;;;1.77;1.13;;;;;;;14.55;100.00;101099.41;4991035;28;96538;-30
2023/05/09 13:58:11;;;;;;;1.70;1.17;;;;;;;14.51;100.00;101094.28;4991350;28;96740;-29
2023/05/09 14:00:37;;;;;;;1.73;1.08;;;;;;;14.52;100.00;101088.72;4991194;28;99300;-29
2023/05/09 14:03:02;;;;;;;2.30;1.00;;;;;;;14.52;100.00;101087.84;4991055;28;97282;-29
2023/05/09 14:05:30;;;;;;;2.28;1.27;;;;;;;14.52;100.00;101087.84;4991839;28;96443;-29
2023/05/09 14:07:56;;;;;;;1.85;1.10;;;;;;;14.55;100.00;101077.63;4993562;28;96543;-29
2023/05/09 14:10:23;;;;;;;2.28;1.20;;;;;;;14.55;100.00;101079.47;4993218;28;98954;-29
2023/05/09 14:12:48;;;;;;;2.38;1.30;;;;;;;14.59;100.00;101073.69;4994788;28;99188;-29
2023/05/09 14:15:13;;;;;;;1.65;1.13;;;;;;;14.58;100.00;101071.94;4994526;28;101443;-29
2023/05/09 14:17:38;;;;;;;1.95;1.20;;;;;;;14.58;100.00;101077.38;4994856;28;96816;-29
2023/05/09 14:20:05;;;;;;;1.75;1.15;;;;;;;14.63;100.00;101075.22;4994098;28;97912;-29
2023/05/09 14:22:31;;;;;;;1.85;1.05;;;;;;;14.57;100.00;101066.59;4993120;28;101347;-29
2023/05/09 14:24:56;;;;;;;1.95;1.20;;;;;;;14.59;100.00;101073.69;4994096;28;96857;-29
2023/05/09 14:27:21;;;;;;;1.20;1.02;;;;;;;14.55;100.00;101074.88;4994711;28;96816;-29
2023/05/09 14:29:48;;;;;;;1.02;0.70;;;;;;;14.56;100.00;101062.13;4994468;28;98019;-28
2023/05/09 14:32:13;;;;;;;2.35;1.23;;;;;;;14.52;100.00;101066.91;4994032;28;99161;-29
2023/05/09 14:34:39;;;;;;;1.02;0.75;;;;;;;14.53;100.00;101059.59;4993150;28;96574;-30
2023/05/09 14:37:12;;;;;;;1.17;0.90;;;;;;;14.56;100.00;101063.03;4995009;28;96778;-30
2023/05/09 14:39:41;;;;;;;3.92;1.10;;;;;;;14.60;100.00;101050.00;4992880;28;101170;-28
2023/05/09 14:42:09;;;;;;;1.35;0.98;;;;;;;14.56;100.00;101049.38;4992860;28;100943;-29
2023/05/09 14:44:35;;;;;;;2.45;1.02;;;;;;;14.54;100.00;101051.34;4992259;28;96938;-29
2023/05/09 14:47:00;;;;;;;3.40;1.02;;;;;;;14.52;100.00;101047.84;4992808;28;96910;-29
2023/05/09 14:49:26;;;;;;;0.50;0.45;;;;;;;14.52;100.00;101046.97;4994208;28;97951;-29
2023/05/09 14:51:51;;;;;;;1.17;0.90;;;;;;;14.54;100.00;101040.44;4993795;28;101299;-29
2023/05/09 14:54:16;;;;;;;2.13;1.27;;;;;;;14.58;100.00;101038.34;4994075;28;96798;-29
2023/05/09 14:56:42;;;;;;;2.03;1.23;;;;;;;14.53;100.00;101029.63;4994148;28;98490;-29
2023/05/09 14:59:08;;;;;;;2.00;1.30;;;;;;;14.59;100.00;101042.84;4993475;28;98868;-29
2023/05/09 15:01:33;;;;;;;1.65;1.08;;;;;;;14.59;100.00;101030.06;4992623;28;100995;-29
2023/05/09 15:03:58;;;;;;;0.95;0.77;;;;;;;14.52;100.00;101031.47;4994059;28;96600;-29
2023/05/09 15:06:24;;;;;;;1.10;0.82;;;;;;;14.44;100.00;101032.06;4994088;28;96885;-31
2023/05/09 15:08:49;;;;;;;1.17;0.80;;;;;;;14.42;100.00;101023.13;4993059;28;98901;-29
2023/05/09 15:11:15;;;;;;;0.93;0.82;;;;;;;14.44;100.00;101029.34;4993951;28;97845;-29
2023/05/09 15:13:40;;;;;;;1.77;1.02;;;;;;;14.43;100.00;101024.84;4993824;28;96794;-29
2023/05/09 15:16:05;;;;;;;1.30;0.80;;;;;;;14.37;100.00;101024.44;4994022;28;96880;-29
2023/05/09 15:18:32;;;;;;;0.77;0.60;;;;;;;14.40;100.00;101035.13;4992824;28;97938;-31
2023/05/09 15:20:57;;;;;;;0.90;0.68;;;;;;;14.36;100.00;101018.13;4993441;28;99338;-28
2023/05/09 15:23:23;;;;;;;1.00;0.70;;;;;;;14.32;100.00;101019.31;4993199;28;96719;-30
2023/05/09 15:25:48;;;;;;;1.35;0.75;;;;;;;14.36;100.00;101029.03;4994205;28;96854;-29
2023/05/09 15:28:14;;;;;;;0.63;0.45;;;;;;;14.34;100.00;101025.53;4992990;28;98945;-31
2023/05/09 15:30:40;;;;;;;0.88;0.55;;;;;;;14.32;100.00;101022.06;4993356;28;97788;-29
2023/05/09 15:33:06;;;;;;;1.38;0.60;;;;;;;14.28;100.00;101022.41;4991604;28;97347;-29
2023/05/09 15:35:32;;;;;;;0.73;0.45;;;;;;;14.28;100.00;101020.56;4992095;28;97155;-31
2023/05/09 15:37:58;;;;;;;1.08;0.85;;;;;;;14.33;100.00;101029.25;4993385;28;98017;-29
2023/05/09 15:40:23;;;;;;;0.60;0.57;;;;;;;14.36;100.00;101029.03;4993017;28;98662;-30